createdAt,value
2018-06-24T00:01:32.856Z,19.63
2018-06-24T00:06:17.795Z,18.97
2018-06-24T00:11:03.474Z,18.60
2018-06-24T00:15:48.208Z,17.50
2018-06-24T00:20:33.047Z,17.63
2018-06-24T00:25:20.585Z,16.37
2018-06-24T00:30:06.143Z,15.67
2018-06-24T00:34:50.922Z,19.60
2018-06-24T00:39:38.580Z,18.10
2018-06-24T00:44:23.298Z,15.00
2018-06-24T00:49:07.807Z,19.03
2018-06-24T00:53:52.515Z,16.77
2018-06-24T00:58:38.101Z,17.77
2018-06-24T01:03:22.582Z,16.77
2018-06-24T01:08:07.139Z,19.07
2018-06-24T01:12:52.038Z,16.33
2018-06-24T01:17:36.768Z,17.00
2018-06-24T01:22:21.376Z,21.53
2018-06-24T01:27:05.522Z,15.90
2018-06-24T01:31:50.079Z,16.93
2018-06-24T01:36:34.517Z,17.03
2018-06-24T01:41:18.950Z,14.37
2018-06-24T01:46:03.450Z,13.03
2018-06-24T01:50:48.146Z,16.53
2018-06-24T01:55:32.574Z,16.17
2018-06-24T02:00:16.916Z,13.20
2018-06-24T02:05:02.412Z,13.57
2018-06-24T02:09:46.821Z,11.60
2018-06-24T02:14:31.221Z,13.03
2018-06-24T02:19:15.661Z,15.50
2018-06-24T02:24:00.182Z,17.67
2018-06-24T02:28:44.681Z,15.00
2018-06-24T02:33:29.159Z,14.70
2018-06-24T02:38:13.844Z,13.93
2018-06-24T02:42:58.529Z,12.07
2018-06-24T02:47:43.055Z,12.07
2018-06-24T02:52:27.460Z,8.43
2018-06-24T02:57:11.828Z,7.77
2018-06-24T03:01:56.415Z,5.90
2018-06-24T03:06:41.132Z,6.53
2018-06-24T03:11:26.011Z,6.20
2018-06-24T03:16:10.730Z,8.67
2018-06-24T03:20:55.446Z,7.67
2018-06-24T03:25:39.944Z,9.67
2018-06-24T03:30:24.653Z,8.20
2018-06-24T03:35:09.503Z,9.93
2018-06-24T03:39:54.320Z,7.97
2018-06-24T03:44:38.687Z,8.70
2018-06-24T03:49:23.221Z,13.50
2018-06-24T03:54:07.700Z,12.17
2018-06-24T03:58:52.406Z,15.07
2018-06-24T04:03:36.800Z,18.63
2018-06-24T04:08:21.346Z,12.87
2018-06-24T04:13:06.097Z,12.60
2018-06-24T04:17:50.562Z,11.10
2018-06-24T04:22:35.337Z,14.50
2018-06-24T04:27:19.880Z,21.57
2018-06-24T04:32:04.989Z,22.27
2018-06-24T04:36:49.351Z,15.77
2018-06-24T04:41:33.802Z,19.73
2018-06-24T04:46:18.205Z,23.47
2018-06-24T04:51:02.747Z,21.50
2018-06-24T04:55:47.252Z,16.80
2018-06-24T05:00:31.649Z,21.67
2018-06-24T05:05:16.147Z,20.37
2018-06-24T05:10:00.661Z,18.27
2018-06-24T05:14:45.209Z,15.87
2018-06-24T05:19:29.728Z,15.33
2018-06-24T05:24:14.249Z,14.50
2018-06-24T05:28:58.790Z,16.73
2018-06-24T05:33:43.160Z,15.63
2018-06-24T05:38:27.683Z,17.13
2018-06-24T05:43:13.280Z,16.23
2018-06-24T05:47:58.128Z,17.83
2018-06-24T05:52:42.790Z,18.80
2018-06-24T05:57:27.489Z,19.83
2018-06-24T06:02:12.265Z,15.90
2018-06-24T06:06:57.487Z,18.77
2018-06-24T06:11:42.610Z,12.37
2018-06-24T06:16:27.221Z,16.67
2018-06-24T06:21:11.758Z,14.33
2018-06-24T06:25:56.172Z,15.53
2018-06-24T06:30:40.814Z,14.33
2018-06-24T06:35:25.203Z,13.20
2018-06-24T06:40:09.868Z,11.83
2018-06-24T06:44:54.352Z,15.77
2018-06-24T06:49:38.842Z,13.40
2018-06-24T06:54:23.287Z,16.63
2018-06-24T06:59:07.980Z,12.67
2018-06-24T07:03:52.611Z,14.27
2018-06-24T07:08:37.257Z,12.60
2018-06-24T07:13:21.691Z,12.10
2018-06-24T07:18:06.235Z,10.67
2018-06-24T07:22:50.737Z,17.57
2018-06-24T07:27:36.072Z,14.23
2018-06-24T07:32:23.839Z,9.33
2018-06-24T07:37:08.273Z,9.80
2018-06-24T07:41:52.736Z,9.53
2018-06-24T07:46:37.178Z,5.63
2018-06-24T07:51:21.539Z,8.30
2018-06-24T07:56:06.110Z,9.37
2018-06-24T08:00:50.727Z,7.67
2018-06-24T08:05:35.186Z,10.83
2018-06-24T08:10:19.645Z,9.17
2018-06-24T08:15:03.765Z,7.77
2018-06-24T08:19:48.102Z,8.50
2018-06-24T08:24:32.528Z,7.43
2018-06-24T08:29:17.083Z,8.13
2018-06-24T08:34:01.494Z,8.47
2018-06-24T08:38:46.085Z,9.20
2018-06-24T08:43:30.562Z,6.30
2018-06-24T08:48:15.118Z,9.40
2018-06-24T08:52:59.591Z,8.20
2018-06-24T08:57:43.910Z,6.30
2018-06-24T09:02:28.358Z,7.03
2018-06-24T09:07:12.890Z,5.30
2018-06-24T09:11:57.322Z,3.70
2018-06-24T09:16:41.967Z,7.90
2018-06-24T09:21:26.360Z,8.07
2018-06-24T09:26:10.766Z,7.47
2018-06-24T09:30:55.512Z,5.17
2018-06-24T09:35:39.869Z,7.33
2018-06-24T09:40:24.270Z,8.07
2018-06-24T09:45:08.670Z,6.13
2018-06-24T09:49:53.149Z,7.20
2018-06-24T09:54:37.765Z,9.03
2018-06-24T09:59:22.545Z,8.00
2018-06-24T10:04:07.134Z,5.03
2018-06-24T10:08:51.597Z,5.57
2018-06-24T10:13:36.046Z,7.07
2018-06-24T10:18:20.509Z,6.03
2018-06-24T10:23:05.080Z,8.30
2018-06-24T10:27:49.752Z,5.63
2018-06-24T10:32:34.302Z,4.37
2018-06-24T10:37:22.795Z,4.07
2018-06-24T10:42:07.208Z,3.83
2018-06-24T10:46:51.742Z,4.50
2018-06-24T10:51:36.302Z,6.47
2018-06-24T10:56:20.910Z,5.33
2018-06-24T11:01:05.526Z,4.70
2018-06-24T11:05:50.011Z,3.87
2018-06-24T11:10:34.421Z,3.20
2018-06-24T11:15:18.868Z,3.67
2018-06-24T11:20:03.358Z,2.70
2018-06-24T11:24:47.971Z,3.77
2018-06-24T11:29:33.306Z,5.43
2018-06-24T11:34:17.347Z,5.67
2018-06-24T11:39:01.739Z,6.27
2018-06-24T11:43:46.219Z,8.27
2018-06-24T11:48:30.823Z,5.63
2018-06-24T11:53:15.323Z,6.60
2018-06-24T11:57:59.866Z,3.73
2018-06-24T12:02:44.464Z,6.83
2018-06-24T12:07:28.828Z,5.17
2018-06-24T12:12:13.347Z,3.07
2018-06-24T12:16:58.031Z,3.77
2018-06-24T12:21:42.540Z,3.63
2018-06-24T12:26:27.307Z,4.07
2018-06-24T12:31:12.013Z,4.10
2018-06-24T12:35:56.449Z,5.40
2018-06-24T12:40:41.012Z,3.97
2018-06-24T12:45:25.464Z,7.43
2018-06-24T12:50:09.852Z,3.77
2018-06-24T12:54:54.035Z,3.47
2018-06-24T12:59:38.753Z,3.97
2018-06-24T13:04:24.105Z,6.00
2018-06-24T13:09:09.547Z,3.57
2018-06-24T13:13:54.102Z,2.60
2018-06-24T13:18:38.555Z,1.80
2018-06-24T13:23:23.108Z,1.90
2018-06-24T13:28:07.583Z,2.20
2018-06-24T13:32:52.091Z,2.43
2018-06-24T13:37:36.655Z,1.37
2018-06-24T13:42:21.494Z,2.40
2018-06-24T13:47:06.036Z,2.47
2018-06-24T13:51:50.609Z,3.40
2018-06-24T13:56:35.123Z,1.33
2018-06-24T14:01:20.058Z,1.60
2018-06-24T14:06:04.850Z,2.90
2018-06-24T14:10:49.400Z,2.23
2018-06-24T14:15:33.818Z,2.03
2018-06-24T14:20:18.261Z,2.60
2018-06-24T14:25:02.717Z,3.53
2018-06-24T14:29:47.381Z,3.87
2018-06-24T14:34:31.841Z,2.47
2018-06-24T14:39:16.428Z,3.73
2018-06-24T14:44:01.017Z,3.40
2018-06-24T14:48:45.582Z,2.37
2018-06-24T14:53:30.183Z,12.33
2018-06-24T14:58:14.700Z,3.37
2018-06-24T15:02:59.174Z,4.00
2018-06-24T15:07:43.773Z,2.27
2018-06-24T15:12:28.411Z,3.17
2018-06-24T15:17:12.912Z,2.67
2018-06-24T15:21:57.431Z,3.60
2018-06-24T15:26:41.919Z,4.23
2018-06-24T15:31:26.649Z,3.23
2018-06-24T15:36:17.629Z,5.97
2018-06-24T15:41:02.092Z,5.43
2018-06-24T15:45:46.767Z,4.17
2018-06-24T15:50:31.342Z,3.37
2018-06-24T15:55:15.932Z,2.63
2018-06-24T16:00:00.617Z,2.70
2018-06-24T16:04:45.094Z,3.63
2018-06-24T16:09:29.535Z,3.43
2018-06-24T16:14:14.102Z,2.20
2018-06-24T16:18:58.617Z,3.13
2018-06-24T16:23:43.251Z,4.23
2018-06-24T16:28:27.820Z,5.00
2018-06-24T16:33:12.425Z,4.17
2018-06-24T16:37:56.895Z,4.27
2018-06-24T16:42:41.553Z,3.00
2018-06-24T16:47:26.281Z,4.17
2018-06-24T16:52:10.826Z,3.27
2018-06-24T16:56:55.319Z,3.07
2018-06-24T17:01:39.863Z,3.90
2018-06-24T17:06:24.476Z,3.83
2018-06-24T17:11:08.990Z,3.70
2018-06-24T17:15:53.565Z,2.10
2018-06-24T17:20:38.242Z,3.53
2018-06-24T17:25:22.678Z,2.60
2018-06-24T17:30:07.232Z,2.90
2018-06-24T17:34:51.648Z,3.23
2018-06-24T17:39:36.215Z,5.60
2018-06-24T17:44:20.708Z,5.17
2018-06-24T17:49:05.341Z,5.93
2018-06-24T17:53:49.918Z,3.40
2018-06-24T17:58:34.497Z,6.33
2018-06-24T18:03:19.338Z,6.03
2018-06-24T18:08:04.057Z,4.00
2018-06-24T18:12:48.587Z,3.37
2018-06-24T18:17:33.083Z,5.67
2018-06-24T18:22:17.690Z,4.43
2018-06-24T18:27:02.165Z,7.30
2018-06-24T18:31:47.106Z,4.87
2018-06-24T18:36:32.200Z,2.60
2018-06-24T18:41:16.930Z,3.63
2018-06-24T18:46:01.606Z,4.10
2018-06-24T18:50:46.381Z,3.83
2018-06-24T18:55:31.007Z,3.27
2018-06-24T19:00:15.849Z,6.33
2018-06-24T19:05:01.591Z,3.27
2018-06-24T19:09:46.170Z,3.70
2018-06-24T19:14:30.873Z,2.60
2018-06-24T19:19:15.872Z,4.60
2018-06-24T19:24:02.348Z,2.70
2018-06-24T19:28:47.268Z,5.50
2018-06-24T19:33:32.443Z,5.53
2018-06-24T19:38:17.876Z,3.43
2018-06-24T19:43:02.558Z,3.50
2018-06-24T19:47:47.763Z,6.30
2018-06-24T19:52:34.665Z,5.17
2018-06-24T19:57:19.478Z,4.30
2018-06-24T20:02:04.452Z,5.37
2018-06-24T20:06:49.327Z,4.20
2018-06-24T20:11:34.146Z,3.10
2018-06-24T20:16:18.958Z,3.40
2018-06-24T20:21:03.900Z,3.80
2018-06-24T20:25:48.598Z,6.00
2018-06-24T20:30:33.235Z,4.97
2018-06-24T20:35:17.790Z,4.43
2018-06-24T20:40:02.539Z,4.87
2018-06-24T20:44:47.203Z,5.53
2018-06-24T20:49:31.884Z,6.43
2018-06-24T20:54:16.396Z,7.70
2018-06-24T20:59:01.136Z,5.80
2018-06-24T21:03:45.988Z,7.13
2018-06-24T21:08:30.781Z,5.10
2018-06-24T21:13:15.461Z,5.47
2018-06-24T21:17:59.957Z,7.43
2018-06-24T21:22:44.473Z,7.20
2018-06-24T21:27:28.963Z,6.57
2018-06-24T21:32:13.461Z,5.97
2018-06-24T21:36:58.092Z,7.43
2018-06-24T21:41:42.815Z,7.17
2018-06-24T21:46:27.412Z,7.27
2018-06-24T21:51:11.889Z,6.93
2018-06-24T21:55:56.671Z,6.70
2018-06-24T22:00:41.348Z,9.83
2018-06-24T22:05:26.019Z,7.63
2018-06-24T22:10:10.486Z,9.50
2018-06-24T22:14:54.904Z,7.97
2018-06-24T22:19:39.369Z,10.23
2018-06-24T22:24:23.978Z,9.03
2018-06-24T22:29:08.654Z,11.07
2018-06-24T22:33:53.347Z,9.83
2018-06-24T22:38:37.827Z,11.60
2018-06-24T22:43:22.978Z,10.73
2018-06-24T22:48:07.491Z,10.93
2018-06-24T22:52:51.825Z,11.53
2018-06-24T22:57:35.994Z,11.93
2018-06-24T23:02:20.427Z,11.53
2018-06-24T23:07:04.244Z,11.67
2018-06-24T23:11:48.556Z,11.30
2018-06-24T23:16:32.899Z,12.33
2018-06-24T23:21:17.381Z,10.70
2018-06-24T23:26:01.902Z,15.00
2018-06-24T23:30:46.385Z,12.97
2018-06-24T23:35:31.797Z,12.53
2018-06-24T23:40:16.176Z,12.80
2018-06-24T23:45:00.600Z,14.27
2018-06-24T23:49:44.985Z,14.57
2018-06-24T23:54:29.732Z,14.27
2018-06-24T23:59:14.866Z,15.50
